createdAt,value
2022-08-22T00:00:59.474Z,93967.97
2022-08-22T00:02:42.671Z,93965.97
2022-08-22T00:02:53.439Z,93967.66
2022-08-22T00:03:55.256Z,93966.16
2022-08-22T00:06:40.518Z,93958.78
2022-08-22T00:09:39.496Z,93955.25
2022-08-22T00:12:29.762Z,93952.94
2022-08-22T00:15:43.622Z,93954.47
2022-08-22T00:18:11.118Z,93956.66
2022-08-22T00:20:44.001Z,93969.38
2022-08-22T00:23:32.861Z,93960.47
2022-08-22T00:26:07.216Z,93969.38
2022-08-22T00:28:57.476Z,93957.47
2022-08-22T00:31:27.868Z,93958.69
2022-08-22T00:34:13.339Z,93959.13
2022-08-22T00:37:00.423Z,93957.97
2022-08-22T00:39:39.402Z,93951.88
2022-08-22T00:42:31.596Z,93956.41
2022-08-22T00:45:34.007Z,93952.44
2022-08-22T00:48:19.621Z,93957.09
2022-08-22T00:51:05.478Z,93960.28
2022-08-22T00:53:44.544Z,93958.78
2022-08-22T00:56:34.257Z,93943.69
2022-08-22T00:59:27.414Z,93934.03
2022-08-22T01:02:12.926Z,93936.69
2022-08-22T01:04:52.298Z,93939.81
2022-08-22T01:07:49.285Z,93944.91
2022-08-22T01:10:31.678Z,93939.50
2022-08-22T01:13:14.045Z,93934.78
2022-08-22T01:15:42.578Z,93944.94
2022-08-22T01:18:36.376Z,93947.28
2022-08-22T01:21:32.321Z,93940.31
2022-08-22T01:24:21.830Z,93936.44
2022-08-22T01:27:11.054Z,93944.91
2022-08-22T01:29:58.304Z,93948.00
2022-08-22T01:32:58.432Z,93947.66
2022-08-22T01:35:33.265Z,93941.88
2022-08-22T01:38:18.661Z,93947.25
2022-08-22T01:41:06.437Z,93951.34
2022-08-22T01:44:15.502Z,93960.34
2022-08-22T01:46:54.483Z,93957.16
2022-08-22T01:49:24.261Z,93953.63
2022-08-22T01:51:56.705Z,93954.81
2022-08-22T01:54:43.146Z,93950.88
2022-08-22T01:57:10.489Z,93955.13
2022-08-22T01:59:42.298Z,93953.19
2022-08-22T02:02:28.120Z,93956.75
2022-08-22T02:05:03.553Z,93945.09
2022-08-22T02:07:52.234Z,93943.47
2022-08-22T02:10:37.778Z,93946.16
2022-08-22T02:13:33.793Z,93951.44
2022-08-22T02:16:05.310Z,93950.91
2022-08-22T02:18:42.109Z,93949.34
2022-08-22T02:21:19.030Z,93953.59
2022-08-22T02:24:04.064Z,93959.03
2022-08-22T02:26:50.291Z,93956.25
2022-08-22T02:29:40.439Z,93957.84
2022-08-22T02:32:15.665Z,93958.84
2022-08-22T02:35:14.694Z,93952.56
2022-08-22T02:38:00.288Z,93948.16
2022-08-22T02:40:50.525Z,93948.88
2022-08-22T02:43:20.987Z,93952.31
2022-08-22T02:46:10.737Z,93955.00
2022-08-22T02:48:57.770Z,93949.84
2022-08-22T02:51:54.023Z,93957.56
2022-08-22T02:54:26.392Z,93957.50
2022-08-22T02:57:06.229Z,93959.50
2022-08-22T02:59:56.875Z,93962.09
2022-08-22T03:02:29.834Z,93960.88
2022-08-22T03:05:00.064Z,93960.47
2022-08-22T03:07:33.758Z,93960.94
2022-08-22T03:10:13.774Z,93952.34
2022-08-22T03:13:03.945Z,93967.53
2022-08-22T03:15:49.237Z,93959.00
2022-08-22T03:18:20.369Z,93966.63
2022-08-22T03:21:00.262Z,93969.72
2022-08-22T03:23:49.367Z,93969.72
2022-08-22T03:26:26.014Z,93970.56
2022-08-22T03:29:00.043Z,93982.94
2022-08-22T03:31:27.914Z,93969.81
2022-08-22T03:34:13.563Z,93972.50
2022-08-22T03:36:45.870Z,93970.56
2022-08-22T03:39:19.028Z,93972.84
2022-08-22T03:42:09.308Z,93968.25
2022-08-22T03:44:47.399Z,93968.97
2022-08-22T03:47:40.498Z,93963.97
2022-08-22T03:50:26.020Z,93966.75
2022-08-22T03:53:19.067Z,93971.75
2022-08-22T03:56:12.484Z,93966.88
2022-08-22T03:58:57.980Z,93969.97
2022-08-22T04:02:03.840Z,93959.97
2022-08-22T04:05:16.266Z,93958.50
2022-08-22T04:08:07.571Z,93962.47
2022-08-22T04:10:52.710Z,93963.03
2022-08-22T04:13:30.068Z,93966.69
2022-08-22T04:16:15.930Z,93966.84
2022-08-22T04:19:02.470Z,93970.28
2022-08-22T04:21:42.368Z,93972.22
2022-08-22T04:24:34.368Z,93974.63
2022-08-22T04:27:19.654Z,93968.50
2022-08-22T04:29:54.860Z,93971.78
2022-08-22T04:32:51.928Z,93974.09
2022-08-22T04:35:29.249Z,93965.91
2022-08-22T04:38:03.021Z,93965.59
2022-08-22T04:40:50.437Z,93971.41
2022-08-22T04:43:24.349Z,93972.63
2022-08-22T04:45:59.501Z,93967.16
2022-08-22T04:48:37.838Z,93972.63
2022-08-22T04:51:08.787Z,93970.78
2022-08-22T04:53:55.808Z,93971.59
2022-08-22T04:56:33.227Z,93973.66
2022-08-22T04:59:03.093Z,93983.81
2022-08-22T05:01:56.310Z,93976.06
2022-08-22T05:04:26.349Z,93979.31
2022-08-22T05:07:16.010Z,93980.19
2022-08-22T05:09:45.803Z,93986.44
2022-08-22T05:12:15.809Z,93988.88
2022-08-22T05:15:02.999Z,93990.84
2022-08-22T05:17:30.936Z,94000.31
2022-08-22T05:20:00.478Z,93996.13
2022-08-22T05:22:28.933Z,93999.31
2022-08-22T05:25:01.534Z,93998.41
2022-08-22T05:27:31.358Z,93997.25
2022-08-22T05:30:18.695Z,94001.63
2022-08-22T05:32:58.154Z,93995.94
2022-08-22T05:35:37.025Z,94007.69
2022-08-22T05:38:05.246Z,94007.97
2022-08-22T05:40:33.529Z,94007.69
2022-08-22T05:43:01.006Z,94009.31
2022-08-22T05:45:28.857Z,94009.03
2022-08-22T05:47:59.359Z,94012.56
2022-08-22T05:50:50.467Z,94018.47
2022-08-22T05:53:33.361Z,94024.03
2022-08-22T05:56:23.469Z,94032.88
2022-08-22T05:59:02.046Z,94031.81
2022-08-22T06:01:43.415Z,94037.41
2022-08-22T06:04:22.765Z,94041.00
2022-08-22T06:06:57.490Z,94045.03
2022-08-22T06:09:44.673Z,94048.19
2022-08-22T06:12:30.136Z,94040.41
2022-08-22T06:15:03.525Z,94032.72
2022-08-22T06:17:43.034Z,94038.25
2022-08-22T06:20:12.370Z,94048.50
2022-08-22T06:22:43.952Z,94042.34
2022-08-22T06:25:16.053Z,94045.09
2022-08-22T06:27:44.150Z,94041.63
2022-08-22T06:30:14.080Z,94044.38
2022-08-22T06:32:59.944Z,94048.69
2022-08-22T06:35:57.677Z,94047.97
2022-08-22T06:38:28.470Z,94049.53
2022-08-22T06:40:58.173Z,94040.16
2022-08-22T06:43:25.397Z,94041.78
2022-08-22T06:45:53.463Z,94043.34
2022-08-22T06:48:23.401Z,94043.34
2022-08-22T06:50:53.082Z,94044.63
2022-08-22T06:53:22.009Z,94031.75
2022-08-22T06:55:54.840Z,94037.72
2022-08-22T06:58:30.926Z,94040.94
2022-08-22T07:01:12.323Z,94041.31
2022-08-22T07:03:59.545Z,94039.00
2022-08-22T07:06:31.112Z,94037.41
2022-08-22T07:08:58.478Z,94035.88
2022-08-22T07:11:37.139Z,94038.69
2022-08-22T07:14:05.870Z,94043.81
2022-08-22T07:16:40.571Z,94057.94
2022-08-22T07:19:08.584Z,94054.03
2022-08-22T07:21:46.443Z,94052.91
2022-08-22T07:24:15.289Z,94049.41
2022-08-22T07:26:53.157Z,94055.31
2022-08-22T07:29:40.813Z,94054.88
2022-08-22T07:32:23.654Z,94049.81
2022-08-22T07:35:09.086Z,94049.44
2022-08-22T07:38:05.021Z,94060.41
2022-08-22T07:40:39.643Z,94060.81
2022-08-22T07:43:30.120Z,94052.16
2022-08-22T07:45:59.330Z,94054.13
2022-08-22T07:48:38.283Z,94055.66
2022-08-22T07:51:22.707Z,94052.44
2022-08-22T07:54:00.636Z,94055.13
2022-08-22T07:56:33.829Z,94051.13
2022-08-22T07:59:09.903Z,94054.66
2022-08-22T08:01:45.409Z,94058.56
2022-08-22T08:04:15.319Z,94049.88
2022-08-22T08:06:42.293Z,94050.34
2022-08-22T08:09:13.664Z,94045.34
2022-08-22T08:11:41.925Z,94050.06
2022-08-22T08:14:13.559Z,94050.06
2022-08-22T08:16:47.751Z,94047.31
2022-08-22T08:19:15.797Z,94046.13
2022-08-22T08:21:47.605Z,94046.47
2022-08-22T08:24:16.404Z,94044.34
2022-08-22T08:27:04.114Z,94048.94
2022-08-22T08:29:32.310Z,94040.19
2022-08-22T08:32:01.073Z,94037.72
2022-08-22T08:34:29.637Z,94039.16
2022-08-22T08:37:06.255Z,94035.53
2022-08-22T08:39:46.065Z,94046.06
2022-08-22T08:42:54.516Z,94046.78
2022-08-22T08:45:28.920Z,94039.59
2022-08-22T08:48:15.197Z,94041.16
2022-08-22T08:50:56.707Z,94036.91
2022-08-22T08:53:43.295Z,94045.09
2022-08-22T08:56:29.726Z,94043.44
2022-08-22T08:59:15.152Z,94035.88
2022-08-22T09:02:05.949Z,94041.53
2022-08-22T09:04:51.621Z,94033.72
2022-08-22T09:07:37.177Z,94043.09
2022-08-22T09:10:22.582Z,94036.66
2022-08-22T09:13:17.989Z,94034.38
2022-08-22T09:16:05.629Z,94036.78
2022-08-22T09:18:43.923Z,94037.59
2022-08-22T09:21:38.462Z,94028.91
2022-08-22T09:24:34.669Z,94036.03
2022-08-22T09:27:08.450Z,94033.28
2022-08-22T09:29:54.456Z,94028.06
2022-08-22T09:32:31.429Z,94033.25
2022-08-22T09:35:27.543Z,94030.50
2022-08-22T09:38:14.561Z,94037.25
2022-08-22T09:40:50.061Z,94030.69
2022-08-22T09:43:33.516Z,94035.03
2022-08-22T09:46:13.670Z,94034.13
2022-08-22T09:48:56.847Z,94022.75
2022-08-22T09:51:41.695Z,94023.19
2022-08-22T09:54:23.678Z,94027.25
2022-08-22T09:57:24.300Z,94023.72
2022-08-22T10:00:23.014Z,94021.53
2022-08-22T10:03:07.099Z,94012.97
2022-08-22T10:06:00.864Z,94017.91
2022-08-22T10:08:57.585Z,94012.13
2022-08-22T10:11:42.159Z,94008.59
2022-08-22T10:14:15.238Z,94002.50
2022-08-22T10:16:57.262Z,93996.59
2022-08-22T10:19:38.084Z,93995.97
2022-08-22T10:22:31.640Z,93992.31
2022-08-22T10:25:30.753Z,93989.16
2022-08-22T10:28:20.136Z,93983.56
2022-08-22T10:31:11.198Z,93976.19
2022-08-22T10:33:56.614Z,93973.50
2022-08-22T10:36:36.950Z,93979.25
2022-08-22T10:39:11.028Z,93978.13
2022-08-22T10:42:05.029Z,93966.66
2022-08-22T10:44:42.303Z,93971.13
2022-08-22T10:47:14.216Z,93959.72
2022-08-22T10:49:51.322Z,93961.91
2022-08-22T10:52:24.468Z,93953.91
2022-08-22T10:55:09.929Z,93948.56
2022-08-22T10:57:50.715Z,93951.31
2022-08-22T11:00:38.228Z,93951.41
2022-08-22T11:03:36.233Z,93951.03
2022-08-22T11:06:12.767Z,93948.09
2022-08-22T11:08:58.993Z,93947.94
2022-08-22T11:11:42.225Z,93950.84
2022-08-22T11:14:26.115Z,93950.81
2022-08-22T11:16:59.254Z,93942.72
2022-08-22T11:19:57.030Z,93944.50
2022-08-22T11:22:34.156Z,93943.63
2022-08-22T11:25:07.645Z,93947.63
2022-08-22T11:27:59.354Z,93943.66
2022-08-22T11:30:46.824Z,93938.28
2022-08-22T11:33:47.090Z,93931.78
2022-08-22T11:36:26.741Z,93925.75
2022-08-22T11:39:22.137Z,93929.81
2022-08-22T11:41:55.130Z,93933.84
2022-08-22T11:44:32.158Z,93930.75
2022-08-22T11:47:03.015Z,93931.69
2022-08-22T11:49:45.559Z,93925.16
2022-08-22T11:52:35.234Z,93930.72
2022-08-22T11:55:17.743Z,93925.88
2022-08-22T11:57:46.458Z,93912.91
2022-08-22T12:00:38.257Z,93904.84
2022-08-22T12:03:31.049Z,93906.16
2022-08-22T12:06:08.379Z,93905.69
2022-08-22T12:08:55.575Z,93909.41
2022-08-22T12:11:25.768Z,93903.19
2022-08-22T12:14:03.964Z,93905.81
2022-08-22T12:16:57.916Z,93904.13
2022-08-22T12:19:32.917Z,93903.69
2022-08-22T12:22:38.837Z,93904.97
2022-08-22T12:25:50.536Z,93886.94
2022-08-22T12:28:31.598Z,93892.44
2022-08-22T12:31:12.511Z,93889.50
2022-08-22T12:33:48.289Z,93883.59
2022-08-22T12:36:42.108Z,93872.59
2022-08-22T12:39:29.881Z,93860.00
2022-08-22T12:42:15.969Z,93860.19
2022-08-22T12:45:07.438Z,93861.81
2022-08-22T12:47:56.702Z,93855.84
2022-08-22T12:50:43.934Z,93861.13
2022-08-22T12:53:23.078Z,93857.94
2022-08-22T12:56:04.752Z,93852.56
2022-08-22T12:59:10.216Z,93840.59
2022-08-22T13:01:44.555Z,93841.81
2022-08-22T13:04:19.313Z,93839.78
2022-08-22T13:07:09.071Z,93845.44
2022-08-22T13:09:43.164Z,93845.97
2022-08-22T13:12:24.131Z,93859.25
2022-08-22T13:14:53.751Z,93874.53
2022-08-22T13:17:24.426Z,93878.53
2022-08-22T13:19:59.439Z,93883.06
2022-08-22T13:22:29.060Z,93877.19
2022-08-22T13:25:08.523Z,93872.47
2022-08-22T13:27:51.240Z,93877.13
2022-08-22T13:30:33.225Z,93880.53
2022-08-22T13:33:10.139Z,93876.56
2022-08-22T13:35:52.390Z,93881.84
2022-08-22T13:38:38.120Z,93888.28
2022-08-22T13:41:13.586Z,93893.44
2022-08-22T13:43:57.069Z,93897.03
2022-08-22T13:46:28.268Z,93916.09
2022-08-22T13:49:01.066Z,93915.53
2022-08-22T13:51:42.776Z,93936.59
2022-08-22T13:54:36.368Z,93931.47
2022-08-22T13:57:37.464Z,93931.41
2022-08-22T14:00:31.914Z,93926.50
2022-08-22T14:03:17.655Z,93929.41
2022-08-22T14:05:53.131Z,93952.28
2022-08-22T14:08:23.386Z,93962.56
2022-08-22T14:11:06.769Z,93967.75
2022-08-22T14:13:45.454Z,93959.88
2022-08-22T14:16:21.150Z,93969.00
2022-08-22T14:18:49.586Z,93973.94
2022-08-22T14:21:45.587Z,93978.25
2022-08-22T14:24:25.531Z,93974.00
2022-08-22T14:27:06.561Z,93971.81
2022-08-22T14:29:59.501Z,93961.75
2022-08-22T14:32:35.221Z,93953.84
2022-08-22T14:35:21.551Z,93968.53
2022-08-22T14:37:54.404Z,93967.94
2022-08-22T14:40:30.321Z,93962.56
2022-08-22T14:43:22.553Z,93965.50
2022-08-22T14:45:58.036Z,93965.94
2022-08-22T14:48:35.428Z,93954.22
2022-08-22T14:51:10.590Z,93951.44
2022-08-22T14:53:38.699Z,93956.13
2022-08-22T14:56:11.040Z,93950.56
2022-08-22T14:58:46.989Z,93942.63
2022-08-22T15:01:16.024Z,93948.03
2022-08-22T15:03:43.981Z,93935.78
2022-08-22T15:06:23.082Z,93940.03
2022-08-22T15:08:50.775Z,93937.56
2022-08-22T15:11:23.175Z,93938.28
2022-08-22T15:13:52.437Z,93937.47
2022-08-22T15:16:29.482Z,93942.16
2022-08-22T15:18:56.542Z,93951.56
2022-08-22T15:21:33.178Z,93946.22
2022-08-22T15:24:10.349Z,93955.88
2022-08-22T15:26:41.304Z,93945.81
2022-08-22T15:29:22.358Z,93949.38
2022-08-22T15:31:51.365Z,93958.44
2022-08-22T15:34:46.148Z,93958.41
2022-08-22T15:37:32.545Z,93957.28
2022-08-22T15:40:07.548Z,93959.63
2022-08-22T15:42:41.303Z,93969.88
2022-08-22T15:45:21.459Z,93970.28
2022-08-22T15:47:52.125Z,93973.41
2022-08-22T15:50:39.289Z,93978.91
2022-08-22T15:53:28.908Z,93986.31
2022-08-22T15:56:23.213Z,93993.00
2022-08-22T15:58:53.695Z,94005.16
2022-08-22T16:01:22.609Z,94003.59
2022-08-22T16:04:12.513Z,94002.41
2022-08-22T16:07:01.318Z,94010.22
2022-08-22T16:09:36.589Z,94012.59
2022-08-22T16:12:06.591Z,94010.56
2022-08-22T16:14:53.605Z,94007.44
2022-08-22T16:17:46.391Z,94004.69
2022-08-22T16:20:40.468Z,93996.09
2022-08-22T16:23:08.377Z,93990.19
2022-08-22T16:26:01.328Z,93989.03
2022-08-22T16:28:56.282Z,94003.13
2022-08-22T16:31:28.813Z,94000.84
2022-08-22T16:33:57.539Z,93996.94
2022-08-22T16:36:44.883Z,93994.19
2022-08-22T16:39:41.253Z,93991.44
2022-08-22T16:42:34.383Z,93994.56
2022-08-22T16:45:24.144Z,93995.34
2022-08-22T16:47:56.689Z,93991.03
2022-08-22T16:50:28.271Z,93983.59
2022-08-22T16:53:00.623Z,93995.34
2022-08-22T16:55:48.272Z,93992.22
2022-08-22T16:58:56.899Z,93990.25
2022-08-22T17:01:57.085Z,93990.28
2022-08-22T17:04:40.361Z,93980.84
2022-08-22T17:07:19.201Z,93986.31
2022-08-22T17:10:12.692Z,93983.94
2022-08-22T17:12:57.326Z,93986.31
2022-08-22T17:15:47.279Z,93983.94
2022-08-22T17:18:35.722Z,93985.91
2022-08-22T17:21:11.825Z,93987.09
2022-08-22T17:23:53.151Z,93983.56
2022-08-22T17:26:26.533Z,93985.91
2022-08-22T17:29:02.528Z,93982.78
2022-08-22T17:31:36.936Z,93995.69
2022-08-22T17:34:21.279Z,93995.31
2022-08-22T17:37:08.363Z,94003.88
2022-08-22T17:40:07.615Z,93999.13
2022-08-22T17:42:42.840Z,93999.09
2022-08-22T17:45:32.219Z,94002.22
2022-08-22T17:48:18.300Z,94011.56
2022-08-22T17:50:55.153Z,94005.31
2022-08-22T17:53:45.047Z,94010.00
2022-08-22T17:56:11.927Z,94003.75
2022-08-22T17:58:54.090Z,94005.31
2022-08-22T18:01:39.400Z,94005.28
2022-08-22T18:04:09.422Z,94015.47
2022-08-22T18:06:44.015Z,94013.09
2022-08-22T18:09:21.890Z,94019.72
2022-08-22T18:11:58.691Z,94031.38
2022-08-22T18:14:49.461Z,94030.97
2022-08-22T18:17:39.697Z,94036.41
2022-08-22T18:20:28.946Z,94031.66
2022-08-22T18:22:59.027Z,94034.78
2022-08-22T18:25:44.276Z,94041.78
2022-08-22T18:28:34.085Z,94026.09
2022-08-22T18:31:06.907Z,94033.09
2022-08-22T18:33:54.138Z,94036.22
2022-08-22T18:36:35.127Z,94036.22
2022-08-22T18:39:06.944Z,94042.44
2022-08-22T18:41:39.148Z,94051.84
2022-08-22T18:44:13.551Z,94051.06
2022-08-22T18:46:43.756Z,94052.63
2022-08-22T18:49:40.307Z,94054.97
2022-08-22T18:52:18.282Z,94054.97
2022-08-22T18:55:17.363Z,94050.28
2022-08-22T18:57:59.620Z,94065.19
2022-08-22T19:00:46.867Z,94069.50
2022-08-22T19:03:32.583Z,94072.25
2022-08-22T19:06:13.973Z,94070.63
2022-08-22T19:08:59.821Z,94073.72
2022-08-22T19:11:41.128Z,94074.50
2022-08-22T19:14:29.584Z,94074.09
2022-08-22T19:17:16.809Z,94067.47
2022-08-22T19:20:33.946Z,94067.88
2022-08-22T19:23:19.485Z,94077.63
2022-08-22T19:26:05.158Z,94081.13
2022-08-22T19:28:36.576Z,94079.56
2022-08-22T19:31:22.957Z,94083.88
2022-08-22T19:34:09.978Z,94090.50
2022-08-22T19:36:36.868Z,94084.22
2022-08-22T19:39:11.312Z,94093.97
2022-08-22T19:41:57.139Z,94089.63
2022-08-22T19:44:44.961Z,94092.72
2022-08-22T19:47:38.422Z,94081.78
2022-08-22T19:50:28.361Z,94085.28
2022-08-22T19:53:07.137Z,94090.75
2022-08-22T19:55:57.038Z,94087.22
2022-08-22T19:58:31.887Z,94095.41
2022-08-22T20:01:28.836Z,94096.19
2022-08-22T20:04:01.768Z,94099.34
2022-08-22T20:06:44.403Z,94092.31
2022-08-22T20:09:32.006Z,94089.56
2022-08-22T20:12:19.064Z,94089.16
2022-08-22T20:14:46.837Z,94085.25
2022-08-22T20:18:11.593Z,94080.94
2022-08-22T20:20:38.552Z,94089.13
2022-08-22T20:23:22.964Z,94083.25
2022-08-22T20:25:53.063Z,94086.75
2022-08-22T20:28:44.431Z,94086.78
2022-08-22T20:31:18.914Z,94087.84
2022-08-22T20:33:46.795Z,94088.19
2022-08-22T20:36:28.388Z,94081.94
2022-08-22T20:38:59.882Z,94076.47
2022-08-22T20:41:32.719Z,94079.59
2022-08-22T20:44:22.855Z,94077.22
2022-08-22T20:46:55.294Z,94069.41
2022-08-22T20:49:42.492Z,94077.13
2022-08-22T20:52:11.987Z,94085.66
2022-08-22T20:54:41.175Z,94084.84
2022-08-22T20:57:17.211Z,94089.91
2022-08-22T21:00:11.527Z,94094.50
2022-08-22T21:02:40.992Z,94099.50
2022-08-22T21:05:18.851Z,94111.19
2022-08-22T21:07:47.678Z,94110.34
2022-08-22T21:10:50.885Z,94110.38
2022-08-22T21:13:25.993Z,94102.19
2022-08-22T21:15:54.598Z,94100.22
2022-08-22T21:18:26.356Z,94097.47
2022-08-22T21:20:53.751Z,94096.72
2022-08-22T21:23:20.675Z,94087.81
2022-08-22T21:25:50.407Z,94089.41
2022-08-22T21:28:32.043Z,94089.50
2022-08-22T21:30:59.645Z,94085.97
2022-08-22T21:33:26.700Z,94091.06
2022-08-22T21:35:58.091Z,94089.09
2022-08-22T21:38:25.540Z,94096.03
2022-08-22T21:40:52.482Z,94089.34
2022-08-22T21:43:31.729Z,94090.81
2022-08-22T21:45:58.600Z,94100.09
2022-08-22T21:48:44.051Z,94088.38
2022-08-22T21:51:50.477Z,94086.78
2022-08-22T21:54:44.087Z,94091.41
2022-08-22T21:57:19.452Z,94084.72
2022-08-22T21:59:51.880Z,94082.72
2022-08-22T22:02:31.233Z,94083.50
2022-08-22T22:05:01.974Z,94084.28
2022-08-22T22:07:29.419Z,94083.09
2022-08-22T22:09:56.315Z,94076.44
2022-08-22T22:12:23.821Z,94065.16
2022-08-22T22:14:51.067Z,94057.75
2022-08-22T22:17:18.663Z,94056.91
2022-08-22T22:19:45.675Z,94055.69
2022-08-22T22:22:12.530Z,94049.78
2022-08-22T22:24:39.477Z,94055.16
2022-08-22T22:27:06.665Z,94056.69
2022-08-22T22:29:33.627Z,94056.69
2022-08-22T22:32:00.463Z,94053.94
2022-08-22T22:34:27.422Z,94051.25
2022-08-22T22:36:54.779Z,94042.69
2022-08-22T22:39:21.930Z,94042.75
2022-08-22T22:41:49.246Z,94034.16
2022-08-22T22:44:16.169Z,94031.00
2022-08-22T22:46:42.967Z,94032.56
2022-08-22T22:49:10.027Z,94023.19
2022-08-22T22:51:37.050Z,94028.59
2022-08-22T22:54:03.851Z,94034.34
2022-08-22T22:56:31.433Z,94019.81
2022-08-22T22:59:00.678Z,94026.78
2022-08-22T23:01:33.528Z,94028.31
2022-08-22T23:04:03.581Z,94033.00
2022-08-22T23:06:33.309Z,94035.41
2022-08-22T23:09:00.099Z,94035.47
2022-08-22T23:11:28.249Z,94045.66
2022-08-22T23:13:55.219Z,94043.31
2022-08-22T23:16:27.009Z,94043.69
2022-08-22T23:18:54.141Z,94041.38
2022-08-22T23:21:24.017Z,94042.53
2022-08-22T23:23:51.183Z,94047.97
2022-08-22T23:26:18.092Z,94045.56
2022-08-22T23:28:45.129Z,94054.03
2022-08-22T23:31:13.635Z,94057.09
2022-08-22T23:33:40.699Z,94041.41
2022-08-22T23:36:25.796Z,94044.59
2022-08-22T23:38:53.302Z,94045.38
2022-08-22T23:41:21.860Z,94046.88
2022-08-22T23:43:50.597Z,94043.00
2022-08-22T23:46:18.675Z,94057.84
2022-08-22T23:48:45.774Z,94057.84
2022-08-22T23:51:13.669Z,94055.91
2022-08-22T23:53:41.044Z,94059.03
2022-08-22T23:56:19.449Z,94058.25
2022-08-22T23:58:47.002Z,94057.09
